createdAt,value
2018-06-12T00:00:10.427Z,79.30
2018-06-12T00:02:38.796Z,79.70
2018-06-12T00:05:07.100Z,79.00
2018-06-12T00:07:35.405Z,79.70
2018-06-12T00:10:03.748Z,80.10
2018-06-12T00:12:32.065Z,80.10
2018-06-12T00:15:00.860Z,80.00
2018-06-12T00:17:29.177Z,79.80
2018-06-12T00:19:57.484Z,79.90
2018-06-12T00:22:25.775Z,79.30
2018-06-12T00:24:54.174Z,78.90
2018-06-12T00:27:22.489Z,79.30
2018-06-12T00:29:50.807Z,79.10
2018-06-12T00:32:19.119Z,79.50
2018-06-12T00:34:47.420Z,79.90
2018-06-12T00:37:15.724Z,79.70
2018-06-12T00:39:44.036Z,80.30
2018-06-12T00:42:12.337Z,79.90
2018-06-12T00:44:40.668Z,80.30
2018-06-12T00:47:08.987Z,80.60
2018-06-12T00:49:37.297Z,80.00
2018-06-12T00:52:05.621Z,81.00
2018-06-12T00:54:33.913Z,81.20
2018-06-12T00:57:09.680Z,81.60
2018-06-12T00:59:37.976Z,81.90
2018-06-12T01:02:06.307Z,81.40
2018-06-12T01:04:34.624Z,79.70
2018-06-12T01:07:02.956Z,81.30
2018-06-12T01:09:31.256Z,81.20
2018-06-12T01:11:59.991Z,81.50
2018-06-12T01:14:28.302Z,80.90
2018-06-12T01:16:56.620Z,81.30
2018-06-12T01:19:24.917Z,82.70
2018-06-12T01:21:53.216Z,83.40
2018-06-12T01:24:21.524Z,83.70
2018-06-12T01:26:49.848Z,84.70
2018-06-12T01:29:18.165Z,84.90
2018-06-12T01:31:46.464Z,84.40
2018-06-12T01:34:14.780Z,84.50
2018-06-12T01:36:43.103Z,84.50
2018-06-12T01:39:11.416Z,84.20
2018-06-12T01:41:39.744Z,84.50
2018-06-12T01:44:08.064Z,83.20
2018-06-12T01:46:36.367Z,82.30
2018-06-12T01:49:04.704Z,81.90
2018-06-12T01:51:33.064Z,81.80
2018-06-12T01:54:01.384Z,82.20
2018-06-12T01:56:30.531Z,82.90
2018-06-12T01:58:58.819Z,84.10
2018-06-12T02:01:27.139Z,84.50
2018-06-12T02:03:55.445Z,85.10
2018-06-12T02:06:23.752Z,85.70
2018-06-12T02:08:52.069Z,85.10
2018-06-12T02:11:20.392Z,85.50
2018-06-12T02:13:48.774Z,84.60
2018-06-12T02:16:17.104Z,84.70
2018-06-12T02:18:45.507Z,85.00
2018-06-12T02:21:13.820Z,84.60
2018-06-12T02:23:42.168Z,84.60
2018-06-12T02:26:10.466Z,84.60
2018-06-12T02:28:38.782Z,85.00
2018-06-12T02:31:07.129Z,84.80
2018-06-12T02:33:35.461Z,84.40
2018-06-12T02:36:03.816Z,84.60
2018-06-12T02:38:32.176Z,84.60
2018-06-12T02:41:00.481Z,85.20
2018-06-12T02:43:28.813Z,84.70
2018-06-12T02:45:57.211Z,85.00
2018-06-12T02:48:25.520Z,84.80
2018-06-12T02:50:53.946Z,84.80
2018-06-12T02:53:22.256Z,84.90
2018-06-12T02:55:50.824Z,85.60
2018-06-12T02:58:19.136Z,85.40
2018-06-12T03:00:47.460Z,85.90
2018-06-12T03:03:15.804Z,85.90
2018-06-12T03:05:44.144Z,86.30
2018-06-12T03:08:12.500Z,85.60
2018-06-12T03:10:40.813Z,85.80
2018-06-12T03:13:09.176Z,85.90
2018-06-12T03:15:37.476Z,86.00
2018-06-12T03:18:05.892Z,86.10
2018-06-12T03:20:43.412Z,86.70
2018-06-12T03:23:11.807Z,87.00
2018-06-12T03:25:40.225Z,87.10
2018-06-12T03:28:09.293Z,86.40
2018-06-12T03:30:38.400Z,86.60
2018-06-12T03:33:06.745Z,86.70
2018-06-12T03:35:35.068Z,86.70
2018-06-12T03:38:03.400Z,86.90
2018-06-12T03:40:31.733Z,87.30
2018-06-12T03:43:00.037Z,86.60
2018-06-12T03:45:28.948Z,86.90
2018-06-12T03:47:57.251Z,86.90
2018-06-12T03:50:25.604Z,87.10
2018-06-12T03:52:54.339Z,86.70
2018-06-12T03:55:22.659Z,87.00
2018-06-12T03:57:51.000Z,87.00
2018-06-12T04:00:19.626Z,87.40
2018-06-12T04:02:47.977Z,87.60
2018-06-12T04:05:16.287Z,87.50
2018-06-12T04:07:44.623Z,87.30
2018-06-12T04:10:12.915Z,87.30
2018-06-12T04:12:41.238Z,86.80
2018-06-12T04:15:09.557Z,86.90
2018-06-12T04:17:38.469Z,87.40
2018-06-12T04:20:06.828Z,87.30
2018-06-12T04:22:35.140Z,87.80
2018-06-12T04:25:03.841Z,87.70
2018-06-12T04:27:32.408Z,87.50
2018-06-12T04:30:00.740Z,87.80
2018-06-12T04:32:29.051Z,87.60
2018-06-12T04:34:57.387Z,87.60
2018-06-12T04:37:25.732Z,87.80
2018-06-12T04:39:54.052Z,87.60
2018-06-12T04:42:22.380Z,87.50
2018-06-12T04:44:50.689Z,87.60
2018-06-12T04:47:19.014Z,87.40
2018-06-12T04:49:47.968Z,87.40
2018-06-12T04:52:16.300Z,87.30
2018-06-12T04:54:44.663Z,87.60
2018-06-12T04:57:12.972Z,87.60
2018-06-12T04:59:41.284Z,86.90
2018-06-12T05:02:09.592Z,87.70
2018-06-12T05:04:37.919Z,87.60
2018-06-12T05:07:06.227Z,88.10
2018-06-12T05:09:34.600Z,87.50
2018-06-12T05:12:02.986Z,86.80
2018-06-12T05:14:31.302Z,86.70
2018-06-12T05:17:00.439Z,87.10
2018-06-12T05:19:28.761Z,86.00
2018-06-12T05:21:57.072Z,87.10
2018-06-12T05:24:25.380Z,86.80
2018-06-12T05:26:54.852Z,86.40
2018-06-12T05:29:23.156Z,86.60
2018-06-12T05:31:51.593Z,85.30
2018-06-12T05:34:19.928Z,87.00
2018-06-12T05:36:48.288Z,85.70
2018-06-12T05:39:16.596Z,86.60
2018-06-12T05:41:44.951Z,86.40
2018-06-12T05:44:13.411Z,85.50
2018-06-12T05:46:41.730Z,85.90
2018-06-12T05:49:10.160Z,85.30
2018-06-12T05:51:38.477Z,87.20
2018-06-12T05:54:06.981Z,87.10
2018-06-12T05:56:35.434Z,87.60
2018-06-12T05:59:03.750Z,87.20
2018-06-12T06:04:00.093Z,87.10
2018-06-12T06:06:28.413Z,86.90
2018-06-12T06:08:56.808Z,86.20
2018-06-12T06:11:25.120Z,86.00
2018-06-12T06:16:22.417Z,86.60
2018-06-12T06:18:50.733Z,85.60
2018-06-12T06:21:19.052Z,87.20
2018-06-12T06:23:47.495Z,86.00
2018-06-12T06:26:15.824Z,84.70
2018-06-12T06:28:44.156Z,84.10
2018-06-12T06:31:12.471Z,84.70
2018-06-12T06:33:40.820Z,85.30
2018-06-12T06:36:09.163Z,85.20
2018-06-12T06:38:37.467Z,83.90
2018-06-12T06:41:05.852Z,84.40
2018-06-12T06:43:34.160Z,83.90
2018-06-12T06:46:03.539Z,83.60
2018-06-12T06:48:32.561Z,83.10
2018-06-12T06:51:00.941Z,82.60
2018-06-12T06:53:29.245Z,82.50
2018-06-12T06:55:57.553Z,81.50
2018-06-12T06:58:25.879Z,82.10
2018-06-12T07:00:54.182Z,81.80
2018-06-12T07:03:22.524Z,80.60
2018-06-12T07:05:50.816Z,80.80
2018-06-12T07:08:20.020Z,80.10
2018-06-12T07:10:48.324Z,80.00
2018-06-12T07:13:16.776Z,77.90
2018-06-12T07:15:45.204Z,77.80
2018-06-12T07:18:13.528Z,78.70
2018-06-12T07:21:50.895Z,77.60
2018-06-12T07:24:19.512Z,77.50
2018-06-12T07:26:47.826Z,78.40
2018-06-12T07:29:16.436Z,76.90
2018-06-12T07:31:44.751Z,76.90
2018-06-12T07:34:13.065Z,76.20
2018-06-12T07:36:41.391Z,76.00
2018-06-12T07:39:09.696Z,76.10
2018-06-12T07:41:38.748Z,75.40
2018-06-12T07:44:07.056Z,76.20
2018-06-12T07:46:35.410Z,75.40
2018-06-12T07:49:03.746Z,75.80
2018-06-12T07:51:32.588Z,75.30
2018-06-12T07:54:00.923Z,76.40
2018-06-12T07:56:29.241Z,75.30
2018-06-12T07:58:57.547Z,76.30
2018-06-12T08:01:26.477Z,73.90
2018-06-12T08:03:54.783Z,74.70
2018-06-12T08:06:23.100Z,74.90
2018-06-12T08:08:51.389Z,75.40
2018-06-12T08:11:19.964Z,73.90
2018-06-12T08:13:48.261Z,75.30
2018-06-12T08:16:16.564Z,73.50
2018-06-12T08:18:44.941Z,75.20
2018-06-12T08:21:13.244Z,77.40
2018-06-12T08:23:41.577Z,74.80
2018-06-12T08:26:10.533Z,76.30
2018-06-12T08:28:38.846Z,75.80
2018-06-12T08:31:07.167Z,76.10
2018-06-12T08:33:35.588Z,76.20
2018-06-12T08:36:03.907Z,75.50
2018-06-12T08:38:32.215Z,75.30
2018-06-12T08:41:01.340Z,78.70
2018-06-12T08:43:29.642Z,74.40
2018-06-12T08:45:57.989Z,73.90
2018-06-12T08:48:26.300Z,73.30
2018-06-12T08:50:54.656Z,74.70
2018-06-12T08:53:22.954Z,75.40
2018-06-12T08:55:51.304Z,71.70
2018-06-12T08:58:19.624Z,73.50
2018-06-12T09:00:47.931Z,73.30
2018-06-12T09:03:16.231Z,73.40
2018-06-12T09:05:44.552Z,70.90
2018-06-12T09:08:12.862Z,74.20
2018-06-12T09:10:41.407Z,75.10
2018-06-12T09:13:09.728Z,73.10
2018-06-12T09:15:38.051Z,72.70
2018-06-12T09:18:06.356Z,74.20
2018-06-12T09:20:34.802Z,73.80
2018-06-12T09:23:03.120Z,75.30
2018-06-12T09:25:31.517Z,74.10
2018-06-12T09:27:59.883Z,73.70
2018-06-12T09:30:28.284Z,73.50
2018-06-12T09:32:56.659Z,72.70
2018-06-12T09:35:24.963Z,71.10
2018-06-12T09:37:53.323Z,70.60
2018-06-12T09:40:21.900Z,72.70
2018-06-12T09:42:50.212Z,70.10
2018-06-12T09:45:18.545Z,70.10
2018-06-12T09:47:46.852Z,69.70
2018-06-12T09:50:15.155Z,69.60
2018-06-12T09:52:43.471Z,68.00
2018-06-12T09:55:12.051Z,69.40
2018-06-12T09:57:40.380Z,68.50
2018-06-12T10:00:08.709Z,69.00
2018-06-12T10:02:37.030Z,70.00
2018-06-12T10:05:05.867Z,69.60
2018-06-12T10:07:34.160Z,69.20
2018-06-12T10:10:02.484Z,70.30
2018-06-12T10:12:30.784Z,69.20
2018-06-12T10:14:59.087Z,69.90
2018-06-12T10:17:27.383Z,69.20
2018-06-12T10:19:55.704Z,68.60
2018-06-12T10:22:24.017Z,68.00
2018-06-12T10:24:52.333Z,68.30
2018-06-12T10:27:20.812Z,67.30
2018-06-12T10:29:49.123Z,70.40
2018-06-12T10:32:17.423Z,68.40
2018-06-12T10:34:45.727Z,67.40
2018-06-12T10:37:14.095Z,67.70
2018-06-12T10:39:42.340Z,66.60
2018-06-12T10:42:10.653Z,65.20
2018-06-12T10:44:38.963Z,67.10
2018-06-12T10:47:07.316Z,65.50
2018-06-12T10:49:35.617Z,66.80
2018-06-12T10:52:03.968Z,66.00
2018-06-12T10:54:33.100Z,66.80
2018-06-12T10:57:01.428Z,66.30
2018-06-12T10:59:29.752Z,65.30
2018-06-12T11:01:58.751Z,65.80
2018-06-12T11:04:27.041Z,66.20
2018-06-12T11:06:55.905Z,63.70
2018-06-12T11:09:24.250Z,64.70
2018-06-12T11:11:52.920Z,62.90
2018-06-12T11:14:21.240Z,66.10
2018-06-12T11:16:49.552Z,67.40
2018-06-12T11:19:17.866Z,66.10
2018-06-12T11:21:46.171Z,64.50
2018-06-12T11:24:14.477Z,65.90
2018-06-12T11:26:42.824Z,66.30
2018-06-12T11:29:11.141Z,66.50
2018-06-12T11:31:39.440Z,65.60
2018-06-12T11:34:07.760Z,67.00
2018-06-12T11:36:36.312Z,66.80
2018-06-12T11:39:06.945Z,68.40
2018-06-12T11:41:35.638Z,70.00
2018-06-12T11:44:04.018Z,65.20
2018-06-12T11:46:32.344Z,69.80
2018-06-12T11:49:01.500Z,69.80
2018-06-12T11:51:29.916Z,71.20
2018-06-12T11:53:58.266Z,70.00
2018-06-12T11:56:26.644Z,68.30
2018-06-12T11:58:54.972Z,69.20
2018-06-12T12:01:23.355Z,72.00
2018-06-12T12:03:51.684Z,73.50
2018-06-12T12:06:20.004Z,68.70
2018-06-12T12:08:48.327Z,74.30
2018-06-12T12:11:16.636Z,72.50
2018-06-12T12:13:45.170Z,71.50
2018-06-12T12:16:13.460Z,72.00
2018-06-12T12:18:41.788Z,70.70
2018-06-12T12:21:10.404Z,70.10
2018-06-12T12:23:38.720Z,69.10
2018-06-12T12:26:07.056Z,68.50
2018-06-12T12:28:35.730Z,71.60
2018-06-12T12:31:04.096Z,69.60
2018-06-12T12:33:33.024Z,70.40
2018-06-12T12:36:01.352Z,69.30
2018-06-12T12:38:29.668Z,70.80
2018-06-12T12:40:57.988Z,69.70
2018-06-12T12:43:26.360Z,67.30
2018-06-12T12:45:54.687Z,72.90
2018-06-12T12:48:23.015Z,72.30
2018-06-12T12:50:51.314Z,72.20
2018-06-12T12:53:19.630Z,72.50
2018-06-12T12:55:47.935Z,71.00
2018-06-12T12:58:16.276Z,75.00
2018-06-12T13:00:44.592Z,74.50
2018-06-12T13:03:12.912Z,75.60
2018-06-12T13:05:41.243Z,77.90
2018-06-12T13:08:09.591Z,76.60
2018-06-12T13:10:37.878Z,76.80
2018-06-12T13:13:06.268Z,79.40
2018-06-12T13:15:34.591Z,79.00
2018-06-12T13:18:02.897Z,81.20
2018-06-12T13:20:31.207Z,81.10
2018-06-12T13:22:59.504Z,82.00
2018-06-12T13:25:27.856Z,80.70
2018-06-12T13:27:56.224Z,81.30
2018-06-12T13:30:24.560Z,82.90
2018-06-12T13:32:52.871Z,82.50
2018-06-12T13:35:21.379Z,82.70
2018-06-12T13:37:49.736Z,84.20
2018-06-12T13:40:18.141Z,84.60
2018-06-12T13:42:46.468Z,84.00
2018-06-12T13:45:14.775Z,85.90
2018-06-12T13:47:43.077Z,85.10
2018-06-12T13:50:11.396Z,85.30
2018-06-12T13:52:39.745Z,85.50
2018-06-12T13:55:08.064Z,85.50
2018-06-12T13:57:36.376Z,86.60
2018-06-12T14:00:05.064Z,85.70
2018-06-12T14:02:33.385Z,86.40
2018-06-12T14:05:02.116Z,84.90
2018-06-12T14:07:30.428Z,88.60
2018-06-12T14:09:58.728Z,87.10
2018-06-12T14:12:27.051Z,86.10
2018-06-12T14:14:55.456Z,88.50
2018-06-12T14:17:24.004Z,89.60
2018-06-12T14:19:52.317Z,89.70
2018-06-12T14:22:20.628Z,88.70
2018-06-12T14:24:48.936Z,90.10
2018-06-12T14:27:17.260Z,90.30
2018-06-12T14:29:46.272Z,90.60
2018-06-12T14:32:17.627Z,90.60
2018-06-12T14:34:45.928Z,90.80
2018-06-12T14:37:14.288Z,88.90
2018-06-12T14:39:42.592Z,90.20
2018-06-12T14:42:12.084Z,90.20
2018-06-12T14:44:40.439Z,90.40
2018-06-12T14:47:08.812Z,90.10
2018-06-12T14:49:37.321Z,91.10
2018-06-12T14:52:05.623Z,90.30
2018-06-12T14:54:34.004Z,90.70
2018-06-12T14:57:02.304Z,90.50
2018-06-12T14:59:30.624Z,88.50
2018-06-12T15:01:59.012Z,90.40
2018-06-12T15:04:27.363Z,90.50
2018-06-12T15:06:55.692Z,91.30
2018-06-12T15:09:24.407Z,91.40
2018-06-12T15:11:52.791Z,91.50
2018-06-12T15:14:21.116Z,92.20
2018-06-12T15:16:49.439Z,92.10
2018-06-12T15:19:17.780Z,91.90
2018-06-12T15:21:46.086Z,92.30
2018-06-12T15:24:14.381Z,92.40
2018-06-12T15:26:42.757Z,91.50
2018-06-12T15:29:11.212Z,91.30
2018-06-12T15:31:40.329Z,91.60
2018-06-12T15:34:08.856Z,91.50
2018-06-12T15:36:37.184Z,92.20
2018-06-12T15:39:07.349Z,91.70
2018-06-12T15:41:36.091Z,91.70
2018-06-12T15:44:04.436Z,92.10
2018-06-12T15:46:32.756Z,92.40
2018-06-12T15:49:01.104Z,92.50
2018-06-12T15:51:29.417Z,93.00
2018-06-12T15:53:57.718Z,92.40
2018-06-12T15:56:26.104Z,92.00
2018-06-12T15:58:54.449Z,92.40
2018-06-12T16:01:22.801Z,91.60
2018-06-12T16:03:51.177Z,91.50
2018-06-12T16:06:19.520Z,91.60
2018-06-12T16:08:47.876Z,91.20
2018-06-12T16:13:44.240Z,92.60
2018-06-12T16:16:13.353Z,92.60
2018-06-12T16:18:41.668Z,91.60
2018-06-12T16:21:10.873Z,91.60
2018-06-12T16:23:39.244Z,91.10
2018-06-12T16:26:07.599Z,91.40
2018-06-12T16:28:35.903Z,91.10
2018-06-12T16:31:04.453Z,91.10
2018-06-12T16:33:32.744Z,91.50
2018-06-12T16:36:01.068Z,90.60
2018-06-12T16:38:29.364Z,90.10
2018-06-12T16:40:57.712Z,90.60
2018-06-12T16:43:26.032Z,90.40
2018-06-12T16:45:54.352Z,88.60
2018-06-12T16:48:22.672Z,89.60
2018-06-12T16:50:50.970Z,90.10
2018-06-12T16:53:19.292Z,88.70
2018-06-12T16:55:47.592Z,88.20
2018-06-12T16:58:15.904Z,86.80
2018-06-12T17:00:44.208Z,86.60
2018-06-12T17:03:12.533Z,87.70
2018-06-12T17:05:40.854Z,87.60
2018-06-12T17:08:09.161Z,86.00
2018-06-12T17:10:37.495Z,79.00
2018-06-12T17:13:06.539Z,79.00
2018-06-12T17:15:34.867Z,76.30
2018-06-12T17:18:03.172Z,76.00
2018-06-12T17:20:31.535Z,74.00
2018-06-12T17:23:00.745Z,69.90
2018-06-12T17:25:29.076Z,67.40
2018-06-12T17:27:57.376Z,73.20
2018-06-12T17:30:25.727Z,72.90
2018-06-12T17:32:54.041Z,70.10
2018-06-12T17:35:22.368Z,73.40
2018-06-12T17:37:50.686Z,72.60
2018-06-12T17:40:19.016Z,72.30
2018-06-12T17:42:47.325Z,71.90
2018-06-12T17:45:15.715Z,68.30
2018-06-12T17:47:44.022Z,70.70
2018-06-12T17:50:12.332Z,75.70
2018-06-12T17:52:40.641Z,78.20
2018-06-12T17:55:09.115Z,77.30
2018-06-12T17:57:37.464Z,78.70
2018-06-12T18:00:05.788Z,80.20
2018-06-12T18:02:34.090Z,78.70
2018-06-12T18:05:03.358Z,80.40
2018-06-12T18:07:31.656Z,81.40
2018-06-12T18:10:00.017Z,83.10
2018-06-12T18:12:28.483Z,82.90
2018-06-12T18:14:57.108Z,82.80
2018-06-12T18:17:25.407Z,82.60
2018-06-12T18:19:58.988Z,82.60
2018-06-12T18:22:27.308Z,82.80
2018-06-12T18:24:55.928Z,83.10
2018-06-12T18:27:24.222Z,83.80
2018-06-12T18:29:52.559Z,84.50
2018-06-12T18:32:20.861Z,86.10
2018-06-12T18:34:49.170Z,86.60
2018-06-12T18:37:17.752Z,86.80
2018-06-12T18:39:46.047Z,85.30
2018-06-12T18:42:14.367Z,84.20
2018-06-12T18:44:42.713Z,85.20
2018-06-12T18:47:11.054Z,85.20
2018-06-12T18:49:39.403Z,86.40
2018-06-12T18:52:07.724Z,87.70
2018-06-12T18:54:36.028Z,87.70
2018-06-12T18:57:04.344Z,88.00
2018-06-12T18:59:32.647Z,87.00
2018-06-12T19:02:01.307Z,86.80
2018-06-12T19:04:29.689Z,88.00
2018-06-12T19:06:57.988Z,89.30
2018-06-12T19:09:26.296Z,88.80
2018-06-12T19:11:54.817Z,88.90
2018-06-12T19:14:23.872Z,88.60
2018-06-12T19:16:52.196Z,89.70
2018-06-12T19:19:20.537Z,90.00
2018-06-12T19:21:48.840Z,88.80
2018-06-12T19:24:17.156Z,90.10
2018-06-12T19:26:45.473Z,89.70
2018-06-12T19:29:13.982Z,88.40
2018-06-12T19:31:42.323Z,86.00
2018-06-12T19:34:10.637Z,85.30
2018-06-12T19:36:38.996Z,85.90
2018-06-12T19:39:07.544Z,86.40
2018-06-12T19:41:35.970Z,87.40
2018-06-12T19:44:04.562Z,88.40
2018-06-12T19:46:33.364Z,90.20
2018-06-12T19:49:01.689Z,90.40
2018-06-12T19:51:30.033Z,89.80
2018-06-12T19:53:59.153Z,89.30
2018-06-12T19:56:27.484Z,88.40
2018-06-12T19:58:55.830Z,87.60
2018-06-12T20:01:24.144Z,88.50
2018-06-12T20:03:53.485Z,89.30
2018-06-12T20:06:21.813Z,89.40
2018-06-12T20:08:50.156Z,89.60
2018-06-12T20:11:18.997Z,89.70
2018-06-12T20:13:47.316Z,90.00
2018-06-12T20:16:15.648Z,89.60
2018-06-12T20:18:44.004Z,89.10
2018-06-12T20:21:12.356Z,88.50
2018-06-12T20:23:40.656Z,88.30
2018-06-12T20:26:09.044Z,89.00
2018-06-12T20:28:38.251Z,89.30
2018-06-12T20:31:06.688Z,89.50
2018-06-12T20:33:35.004Z,89.70
2018-06-12T20:36:03.383Z,89.40
2018-06-12T20:38:31.668Z,89.00
2018-06-12T20:41:00.300Z,89.70
2018-06-12T20:43:28.614Z,89.90
2018-06-12T20:45:56.916Z,89.00
2018-06-12T20:48:25.240Z,88.40
2018-06-12T20:50:53.584Z,88.00
2018-06-12T20:53:21.905Z,89.10
2018-06-12T20:55:50.764Z,89.20
2018-06-12T20:58:19.085Z,89.80
2018-06-12T21:00:47.396Z,89.80
2018-06-12T21:03:15.718Z,89.80
2018-06-12T21:05:44.045Z,89.80
2018-06-12T21:08:12.351Z,90.20
2018-06-12T21:10:40.692Z,89.40
2018-06-12T21:13:09.001Z,89.50
2018-06-12T21:15:37.312Z,89.30
2018-06-12T21:18:05.619Z,89.40
2018-06-12T21:20:33.945Z,89.50
2018-06-12T21:23:02.253Z,89.10
2018-06-12T21:25:30.832Z,89.60
2018-06-12T21:27:59.176Z,88.90
2018-06-12T21:30:27.496Z,88.30
2018-06-12T21:32:55.829Z,88.80
2018-06-12T21:35:24.135Z,88.20
2018-06-12T21:37:52.440Z,88.00
2018-06-12T21:40:21.377Z,87.90
2018-06-12T21:42:49.699Z,88.20
2018-06-12T21:45:18.027Z,88.50
2018-06-12T21:47:46.371Z,89.10
2018-06-12T21:50:14.688Z,89.60
2018-06-12T21:52:43.019Z,89.40
2018-06-12T21:55:11.317Z,89.40
2018-06-12T21:57:39.640Z,89.70
2018-06-12T22:00:08.232Z,89.90
2018-06-12T22:02:36.545Z,89.70
2018-06-12T22:05:05.297Z,90.20
2018-06-12T22:07:33.617Z,89.80
2018-06-12T22:10:02.099Z,89.00
2018-06-12T22:12:30.409Z,88.80
2018-06-12T22:14:58.724Z,89.10
2018-06-12T22:17:27.070Z,89.70
2018-06-12T22:19:55.420Z,88.70
2018-06-12T22:22:23.729Z,89.10
2018-06-12T22:24:52.036Z,88.70
2018-06-12T22:27:20.343Z,89.10
2018-06-12T22:29:48.651Z,88.80
2018-06-12T22:32:16.978Z,89.50
2018-06-12T22:34:45.297Z,88.80
2018-06-12T22:37:13.615Z,88.80
2018-06-12T22:39:41.912Z,89.70
2018-06-12T22:42:10.257Z,89.40
2018-06-12T22:44:38.568Z,89.30
2018-06-12T22:47:06.892Z,89.50
2018-06-12T22:49:35.192Z,88.80
2018-06-12T22:52:03.644Z,88.90
2018-06-12T22:54:31.991Z,89.10
2018-06-12T22:57:00.556Z,88.90
2018-06-12T22:59:29.135Z,89.50
2018-06-12T23:01:57.988Z,89.60
2018-06-12T23:04:26.291Z,89.30
2018-06-12T23:06:54.620Z,89.40
2018-06-12T23:09:22.940Z,88.70
2018-06-12T23:11:51.256Z,88.80
2018-06-12T23:14:20.192Z,89.70
2018-06-12T23:16:48.542Z,89.30
2018-06-12T23:19:16.796Z,89.20
2018-06-12T23:21:56.677Z,89.50
2018-06-12T23:24:25.024Z,89.80
2018-06-12T23:26:53.972Z,90.00
2018-06-12T23:29:22.316Z,90.00
2018-06-12T23:31:50.624Z,90.30
2018-06-12T23:34:18.972Z,90.30
2018-06-12T23:36:47.996Z,90.20
2018-06-12T23:39:16.398Z,90.10
2018-06-12T23:41:44.757Z,90.20
2018-06-12T23:44:13.064Z,90.40
2018-06-12T23:46:41.382Z,90.50
2018-06-12T23:49:09.675Z,90.70
2018-06-12T23:51:37.985Z,90.80
2018-06-12T23:54:06.305Z,90.70
2018-06-12T23:56:34.624Z,90.40
2018-06-12T23:59:02.945Z,90.60
